Firdale, Washington
Current Conditions -  °F | °C
As of 4:53 PM on Tuesday 27 Jan 2015 (Local Time) from KHQM Reporting Station
Overcast Overcast  
Wind Chill: 50°   Ceiling: 2600
Heat Index: 50°   Visibility: 7mi
Dew Point: 45°   Wind: 7mph
Humidity: 83%   Direction: 290°WNW
Pressure: 30.16"   Gusts: NA
Location:  46.6563°N, 123.58°W
Report Text: KHQM 280053Z AUTO 29006KT 7SM OVC026 10/07 A3016 RMK AO2 SLP217 T01000072 $
Loading
Personal Weather Stations






























Interactive Weather Map New forecast layout! Learn more

10-Day Weather Forecast

Advertisements
Track Severe Weather on mobile